Time;durP1;ratioP1;P1;durP2;ratioP2;P2;SDS_P1;SDS_P2;PMS_P1;PMS_P2;Temp;Humidity;BMP_temperature;BMP_pressure;BME280_temperature;BME280_humidity;BME280_pressure;Samples;Min_cycle;Max_cycle;Signal;HPM_P1;HPM_P2
2023/09/12 00:00:35;;;;;;;12.13;9.10;;;20.30;96.00;;;;;;6006053;23;20159;-88
2023/09/12 00:03:10;;;;;;;10.23;8.23;;;20.30;95.90;;;;;;5989540;23;20164;-87
2023/09/12 00:06:08;;;;;;;10.73;8.57;;;20.30;96.00;;;;;;5986205;23;20191;-87
2023/09/12 00:08:44;;;;;;;11.38;8.75;;;20.30;96.10;;;;;;6013575;23;20233;-89
2023/09/12 00:11:28;;;;;;;11.48;8.85;;;20.30;96.10;;;;;;5984429;23;20575;-87
2023/09/12 00:14:18;;;;;;;12.75;8.93;;;20.30;96.10;;;;;;6012323;23;20153;-87
2023/09/12 00:16:55;;;;;;;10.35;8.30;;;20.30;96.10;;;;;;6027310;23;20186;-87
2023/09/12 00:19:21;;;;;;;12.02;8.80;;;20.30;96.00;;;;;;6095142;23;20477;-87
2023/09/12 00:22:05;;;;;;;9.82;7.70;;;20.30;96.10;;;;;;6132745;23;20151;-87
2023/09/12 00:24:40;;;;;;;11.10;8.82;;;20.30;96.10;;;;;;6159406;23;20154;-87
2023/09/12 00:27:20;;;;;;;11.07;8.18;;;20.20;96.10;;;;;;6182096;23;20158;-86
2023/09/12 00:29:51;;;;;;;10.60;8.65;;;20.20;96.20;;;;;;6013899;23;20196;-86
2023/09/12 00:32:31;;;;;;;10.70;8.27;;;20.30;96.10;;;;;;5896396;24;20222;-87
2023/09/12 00:35:12;;;;;;;11.52;8.77;;;20.30;96.30;;;;;;5869806;24;20162;-88
2023/09/12 00:37:51;;;;;;;11.43;8.18;;;20.20;96.20;;;;;;5869875;24;20296;-87
2023/09/12 00:40:54;;;;;;;11.18;8.85;;;20.30;96.30;;;;;;5870910;24;20210;-87
2023/09/12 00:43:34;;;;;;;10.27;8.27;;;20.30;96.20;;;;;;5860593;24;20162;-87
2023/09/12 00:46:08;;;;;;;10.18;8.15;;;20.20;96.10;;;;;;5842885;24;20162;-87
2023/09/12 00:48:42;;;;;;;9.65;7.97;;;20.20;96.20;;;;;;5820385;24;20238;-87
2023/09/12 00:51:08;;;;;;;10.55;8.48;;;20.30;96.30;;;;;;5836552;24;20902;-87
2023/09/12 00:53:40;;;;;;;11.90;8.30;;;20.20;96.40;;;;;;5843776;24;20146;-87
2023/09/12 00:56:20;;;;;;;11.88;8.52;;;20.30;96.30;;;;;;5880588;24;20610;-87
2023/09/12 00:59:07;;;;;;;10.82;8.57;;;20.30;96.20;;;;;;5923567;24;20160;-87
2023/09/12 01:01:52;;;;;;;11.32;8.32;;;20.20;96.20;;;;;;5880419;24;20612;-87
2023/09/12 01:04:28;;;;;;;11.18;8.85;;;20.20;96.10;;;;;;5927085;24;20557;-87
2023/09/12 01:07:15;;;;;;;10.35;8.43;;;20.20;96.20;;;;;;5997539;23;20155;-86
2023/09/12 01:10:17;;;;;;;11.02;8.63;;;20.20;96.20;;;;;;6012760;23;20194;-87
2023/09/12 01:12:48;;;;;;;9.95;7.65;;;20.20;96.20;;;;;;6026251;23;20166;-87
2023/09/12 01:15:23;;;;;;;10.35;7.93;;;20.20;96.30;;;;;;6063893;23;20758;-87
2023/09/12 01:18:17;;;;;;;11.07;8.73;;;20.30;96.20;;;;;;6012016;23;20712;-86
2023/09/12 01:21:21;;;;;;;11.23;8.70;;;20.20;96.20;;;;;;6011515;23;20298;-87
2023/09/12 01:24:23;;;;;;;10.63;8.38;;;20.20;96.20;;;;;;6035588;23;20165;-87
2023/09/12 01:27:19;;;;;;;10.82;8.40;;;20.20;96.20;;;;;;6035634;23;20225;-87
2023/09/12 01:30:14;;;;;;;11.43;8.43;;;20.20;96.20;;;;;;5983787;23;20158;-87
2023/09/12 01:33:04;;;;;;;11.73;8.77;;;20.20;96.20;;;;;;6035440;23;20995;-86
2023/09/12 01:35:38;;;;;;;11.05;8.35;;;20.20;96.30;;;;;;6014429;23;20205;-86
2023/09/12 01:38:06;;;;;;;10.88;8.48;;;20.30;96.30;;;;;;6023950;23;20205;-87
2023/09/12 01:40:49;;;;;;;10.77;7.97;;;20.20;96.20;;;;;;6041149;23;20165;-87
2023/09/12 01:43:24;;;;;;;11.52;8.75;;;20.10;96.50;;;;;;6012358;23;20233;-87
2023/09/12 01:46:16;;;;;;;10.65;8.43;;;20.20;96.60;;;;;;6029527;23;21028;-87
2023/09/12 01:48:53;;;;;;;10.32;8.23;;;20.20;96.30;;;;;;5996082;23;20240;-87
2023/09/12 01:51:21;;;;;;;12.30;8.82;;;20.20;96.50;;;;;;6033866;23;20165;-87
2023/09/12 01:54:08;;;;;;;11.00;8.43;;;20.20;96.50;;;;;;6016698;23;20210;-88
2023/09/12 01:56:52;;;;;;;10.30;8.00;;;20.20;96.50;;;;;;6036006;23;20229;-87
2023/09/12 01:59:38;;;;;;;11.10;8.30;;;20.20;96.40;;;;;;6059113;23;20204;-87
2023/09/12 02:02:42;;;;;;;;;;;;;;;;;;;;;
2023/09/12 02:05:12;;;;;;;10.60;8.02;;;20.20;96.30;;;;;;6118775;23;20246;-86
2023/09/12 02:07:40;;;;;;;10.77;8.60;;;20.10;96.30;;;;;;6151406;23;20162;-87
2023/09/12 02:10:17;;;;;;;11.05;8.40;;;20.20;96.40;;;;;;6122131;23;20178;-87
2023/09/12 02:12:46;;;;;;;12.02;8.68;;;20.20;96.50;;;;;;6129333;23;20190;-87
2023/09/12 02:15:12;;;;;;;9.77;8.15;;;20.10;96.40;;;;;;6104745;23;20159;-87
2023/09/12 02:18:02;;;;;;;11.13;8.57;;;20.20;96.50;;;;;;6098618;23;20251;-87
2023/09/12 02:20:53;;;;;;;11.35;8.32;;;20.20;96.30;;;;;;6091257;23;20156;-87
2023/09/12 02:23:31;;;;;;;10.40;8.52;;;20.20;96.20;;;;;;6109358;23;20213;-87
2023/09/12 02:26:09;;;;;;;11.25;8.10;;;20.20;96.30;;;;;;6113034;23;20179;-87
2023/09/12 02:28:55;;;;;;;10.95;8.20;;;20.20;96.30;;;;;;6112226;23;20191;-87
2023/09/12 02:31:24;;;;;;;11.80;8.55;;;20.20;96.50;;;;;;6028300;23;20217;-87
2023/09/12 02:34:14;;;;;;;11.10;8.70;;;20.20;96.50;;;;;;6025681;23;20267;-87
2023/09/12 02:37:16;;;;;;;11.30;8.40;;;20.20;96.50;;;;;;6002985;23;20272;-87
2023/09/12 02:39:48;;;;;;;11.05;8.32;;;20.10;96.40;;;;;;6043146;23;20237;-87
2023/09/12 02:42:28;;;;;;;10.32;8.13;;;20.20;96.40;;;;;;6019445;23;20497;-87
2023/09/12 02:45:04;;;;;;;10.18;8.43;;;20.20;96.60;;;;;;6014081;23;20229;-87
2023/09/12 02:47:46;;;;;;;11.35;8.85;;;20.10;96.50;;;;;;6047272;23;20167;-87
2023/09/12 02:50:27;;;;;;;10.50;8.43;;;20.20;96.30;;;;;;6084015;23;20162;-87
2023/09/12 02:53:17;;;;;;;12.88;8.73;;;20.10;96.30;;;;;;6072890;23;20605;-86
2023/09/12 02:55:51;;;;;;;11.13;8.55;;;20.10;96.50;;;;;;6024265;23;20236;-88
2023/09/12 02:58:22;;;;;;;9.93;8.00;;;20.10;96.30;;;;;;6065375;23;20562;-86
2023/09/12 03:01:06;;;;;;;11.13;8.60;;;20.10;96.40;;;;;;5994375;23;20188;-87
2023/09/12 03:03:44;;;;;;;11.25;8.50;;;20.20;96.60;;;;;;6102127;23;20156;-87
2023/09/12 03:06:21;;;;;;;11.35;8.73;;;20.10;96.90;;;;;;6076166;23;20314;-87
2023/09/12 03:08:58;;;;;;;10.45;8.30;;;20.10;96.60;;;;;;6093706;23;20187;-88
2023/09/12 03:11:29;;;;;;;11.32;8.85;;;20.20;96.50;;;;;;6070197;23;20152;-87
2023/09/12 03:13:58;;;;;;;11.07;8.73;;;20.10;96.40;;;;;;6094127;23;20157;-87
2023/09/12 03:16:27;;;;;;;11.75;9.05;;;20.10;96.40;;;;;;6071911;23;20641;-88
2023/09/12 03:18:55;;;;;;;11.30;8.85;;;20.10;96.30;;;;;;6099234;23;20167;-86
2023/09/12 03:21:32;;;;;;;11.35;8.70;;;20.10;96.40;;;;;;6123108;23;20151;-87
2023/09/12 03:24:21;;;;;;;10.60;8.10;;;20.10;96.70;;;;;;6123836;23;20163;-87
2023/09/12 03:27:08;;;;;;;12.18;9.23;;;20.10;96.50;;;;;;6065866;23;20165;-87
2023/09/12 03:29:58;;;;;;;10.50;8.55;;;20.20;96.50;;;;;;5987945;23;20290;-87
2023/09/12 03:32:32;;;;;;;11.07;8.68;;;20.10;96.60;;;;;;6008428;23;20169;-86
2023/09/12 03:35:14;;;;;;;11.73;8.75;;;20.10;96.50;;;;;;5956881;24;20215;-87
2023/09/12 03:37:49;;;;;;;10.48;8.07;;;20.20;96.60;;;;;;5956514;24;20652;-87
2023/09/12 03:40:31;;;;;;;11.15;9.00;;;20.10;96.40;;;;;;5966529;23;20183;-87
2023/09/12 03:43:03;;;;;;;10.65;8.38;;;20.10;96.50;;;;;;6065570;23;20201;-87
2023/09/12 03:45:40;;;;;;;10.55;8.32;;;20.10;96.50;;;;;;6010839;23;20169;-86
2023/09/12 03:48:24;;;;;;;11.07;8.73;;;20.10;96.50;;;;;;6005462;23;20190;-87
2023/09/12 03:50:53;;;;;;;12.23;8.98;;;20.10;96.50;;;;;;6017002;23;20161;-87
2023/09/12 03:53:36;;;;;;;;;;;;;;;;;;;;;
2023/09/12 03:56:12;;;;;;;11.65;8.98;;;20.10;96.40;;;;;;6040067;23;20674;-87
2023/09/12 03:59:01;;;;;;;11.27;9.10;;;20.10;96.40;;;;;;6064772;23;20165;-87
2023/09/12 04:01:41;;;;;;;10.60;8.40;;;20.10;96.40;;;;;;6017402;23;20153;-87
2023/09/12 04:04:37;;;;;;;10.98;8.65;;;20.20;96.40;;;;;;5997225;23;20168;-87
2023/09/12 04:07:26;;;;;;;;;;;;;;;;;;;;;
2023/09/12 04:10:02;;;;;;;10.88;8.23;;;20.10;96.50;;;;;;5953875;23;20559;-87
2023/09/12 04:12:57;;;;;;;11.63;9.13;;;20.10;96.40;;;;;;5961785;23;20162;-87
2023/09/12 04:16:10;;;;;;;;;;;;;;;;;;;;;
2023/09/12 04:18:49;;;;;;;11.43;8.55;;;20.10;96.40;;;;;;5992184;23;20163;-86
2023/09/12 04:21:24;;;;;;;10.65;7.75;;;20.10;96.40;;;;;;6037648;23;20233;-87
2023/09/12 04:24:24;;;;;;;;;;;;;;;;;;;;;
2023/09/12 04:27:01;;;;;;;10.60;8.70;;;20.10;96.50;;;;;;6057860;23;20239;-86
2023/09/12 04:29:34;;;;;;;10.40;8.23;;;20.10;96.60;;;;;;6070491;23;20202;-88
2023/09/12 04:32:04;;;;;;;10.85;8.38;;;20.00;96.50;;;;;;6092849;23;20544;-87
2023/09/12 04:34:42;;;;;;;11.43;8.52;;;20.10;96.50;;;;;;5989487;23;20172;-88
2023/09/12 04:37:14;;;;;;;11.65;8.90;;;20.10;96.60;;;;;;6039186;23;20186;-86
2023/09/12 04:40:18;;;;;;;11.13;8.57;;;20.10;96.60;;;;;;6030230;23;20250;-87
2023/09/12 04:43:17;;;;;;;11.05;8.48;;;20.10;96.60;;;;;;6007935;23;20590;-87
2023/09/12 04:46:07;;;;;;;11.18;8.65;;;20.10;96.60;;;;;;6007887;23;20190;-87
2023/09/12 04:48:51;;;;;;;11.15;8.95;;;20.10;96.60;;;;;;5988900;23;20225;-87
2023/09/12 04:51:42;;;;;;;10.70;8.18;;;20.10;96.60;;;;;;6007537;23;20258;-86
2023/09/12 04:54:08;;;;;;;10.88;8.60;;;20.10;96.60;;;;;;6038328;23;20589;-87
2023/09/12 04:56:55;;;;;;;;;;;;;;;;;;;;;
2023/09/12 04:59:58;;;;;;;10.73;8.48;;;20.10;96.60;;;;;;6093644;23;20683;-87
2023/09/12 05:02:44;;;;;;;12.30;8.75;;;20.20;96.70;;;;;;6092018;23;20240;-87
2023/09/12 05:05:19;;;;;;;10.57;8.55;;;20.10;96.70;;;;;;6054349;23;20162;-87
2023/09/12 05:07:51;;;;;;;11.15;8.63;;;20.10;96.70;;;;;;6034955;23;20180;-87
2023/09/12 05:10:46;;;;;;;11.48;8.77;;;20.10;96.70;;;;;;6030585;23;20170;-87
2023/09/12 05:13:18;;;;;;;12.00;9.23;;;20.10;96.60;;;;;;5983642;23;20241;-87
2023/09/12 05:16:03;;;;;;;;;;;;;;;;;;;;;
2023/09/12 05:18:54;;;;;;;11.88;9.15;;;20.10;96.70;;;;;;5989530;23;20737;-87
2023/09/12 05:21:41;;;;;;;11.10;9.00;;;20.10;96.60;;;;;;5987173;23;20164;-87
2023/09/12 05:24:34;;;;;;;10.60;8.10;;;20.10;96.60;;;;;;6062594;23;20562;-87
2023/09/12 05:27:13;;;;;;;10.50;8.60;;;20.10;96.60;;;;;;6041982;23;20161;-87
2023/09/12 05:29:44;;;;;;;10.95;9.20;;;20.10;96.70;;;;;;6101506;23;20160;-86
2023/09/12 05:32:36;;;;;;;11.98;8.95;;;20.10;96.70;;;;;;6092609;23;20156;-87
2023/09/12 05:35:13;;;;;;;10.70;8.43;;;20.10;96.70;;;;;;6077740;23;20522;-87
2023/09/12 05:37:53;;;;;;;9.90;8.25;;;20.10;96.60;;;;;;6009936;23;20216;-87
2023/09/12 05:40:58;;;;;;;10.55;8.10;;;20.10;96.50;;;;;;6053042;23;20160;-87
2023/09/12 05:43:09;;;;;;;10.05;8.35;;;20.10;96.20;;;;;;6092928;23;20157;-87
2023/09/12 05:45:49;;;;;;;10.15;8.20;;;20.20;95.90;;;;;;6105464;23;20214;-88
2023/09/12 05:48:36;;;;;;;8.38;7.30;;;20.20;95.80;;;;;;6065831;23;20244;-87
2023/09/12 05:51:27;;;;;;;8.70;7.10;;;20.30;95.80;;;;;;6021038;23;20252;-86
2023/09/12 05:54:46;;;;;;;9.50;7.45;;;20.20;95.70;;;;;;6021742;23;20192;-87
2023/09/12 05:57:27;;;;;;;8.13;7.07;;;20.20;95.70;;;;;;6016959;23;20809;-88
2023/09/12 06:03:05;;;;;;;8.60;6.90;;;20.20;95.70;;;;;;6065816;23;20491;-87
2023/09/12 06:05:45;;;;;;;7.97;6.80;;;20.20;95.70;;;;;;6123542;23;20155;-87
2023/09/12 06:08:21;;;;;;;7.40;6.50;;;20.10;95.80;;;;;;6098728;23;20156;-87
2023/09/12 06:10:56;;;;;;;9.10;6.60;;;20.10;95.80;;;;;;6099869;23;20163;-87
2023/09/12 06:13:32;;;;;;;9.52;6.88;;;20.10;95.90;;;;;;6124646;23;20159;-87
2023/09/12 06:16:27;;;;;;;7.38;6.18;;;20.10;95.90;;;;;;6066023;23;20241;-86
2023/09/12 06:19:08;;;;;;;8.05;6.60;;;20.10;95.90;;;;;;6072062;23;20169;-87
2023/09/12 06:21:42;;;;;;;7.20;6.30;;;20.10;95.90;;;;;;6030261;23;20162;-88
2023/09/12 06:24:26;;;;;;;8.13;6.50;;;20.10;95.90;;;;;;6027642;23;20162;-87
2023/09/12 06:27:00;;;;;;;8.57;7.13;;;20.10;96.00;;;;;;6009231;23;20240;-86
2023/09/12 06:29:42;;;;;;;8.40;6.75;;;20.10;96.10;;;;;;6032742;23;20294;-87
2023/09/12 06:32:20;;;;;;;7.28;6.32;;;20.10;96.10;;;;;;5957714;24;20231;-89
2023/09/12 06:38:45;;;;;;;6.40;5.53;;;20.10;96.00;;;;;;5897186;24;20697;-89
2023/09/12 06:41:38;;;;;;;8.05;6.28;;;20.10;96.10;;;;;;5853263;24;20348;-88
2023/09/12 06:44:22;;;;;;;8.02;6.75;;;20.10;96.10;;;;;;5796867;24;20161;-87
2023/09/12 06:47:06;;;;;;;6.95;6.25;;;20.10;96.00;;;;;;5913694;23;20165;-88
2023/09/12 06:49:44;;;;;;;7.10;5.97;;;20.10;96.10;;;;;;5984089;24;20166;-86
2023/09/12 06:52:31;;;;;;;6.97;6.28;;;20.00;96.20;;;;;;6011265;23;20162;-86
2023/09/12 06:55:24;;;;;;;7.28;6.30;;;20.10;96.30;;;;;;5982960;24;20166;-87
2023/09/12 06:58:12;;;;;;;6.70;5.95;;;20.10;96.50;;;;;;5926370;24;20252;-86
2023/09/12 07:00:58;;;;;;;6.90;5.68;;;20.10;96.50;;;;;;5927251;24;20171;-88
2023/09/12 07:04:04;;;;;;;7.22;6.25;;;20.10;96.50;;;;;;5925454;24;20230;-87
2023/09/12 07:06:45;;;;;;;7.00;6.18;;;20.00;96.60;;;;;;5922702;24;20178;-87
2023/09/12 07:09:45;;;;;;;7.20;6.28;;;20.00;96.60;;;;;;5920837;24;20157;-87
2023/09/12 07:12:20;;;;;;;7.60;6.70;;;20.00;96.70;;;;;;5877779;24;20187;-88
2023/09/12 07:15:01;;;;;;;6.97;6.15;;;20.10;96.50;;;;;;5828609;24;20633;-88
2023/09/12 08:21:27;;;;;;;6.47;5.70;;;20.10;97.50;;;;;;6042500;23;20158;-87
2023/09/12 08:24:07;;;;;;;7.10;5.88;;;20.10;97.50;;;;;;5994208;23;20147;-87
2023/09/12 08:26:39;;;;;;;7.30;6.47;;;20.10;97.50;;;;;;6010044;23;20236;-86
2023/09/12 08:29:46;;;;;;;;;;;;;;;;;;;;;
2023/09/12 08:33:06;;;;;;;6.93;6.03;;;20.10;97.50;;;;;;5969486;23;20151;-88
2023/09/12 08:35:44;;;;;;;6.68;5.97;;;20.10;97.50;;;;;;5962704;23;20239;-88
2023/09/12 08:38:38;;;;;;;;;;;;;;;;;;;;;
2023/09/12 08:42:03;;;;;;;;;;;;;;;;;;;;;
2023/09/12 08:45:21;;;;;;;6.80;6.05;;;20.10;97.60;;;;;;5907267;24;20165;-87
2023/09/12 08:48:03;;;;;;;7.22;6.53;;;20.10;97.80;;;;;;5834006;24;20184;-86
2023/09/12 08:50:49;;;;;;;8.20;7.22;;;20.10;97.80;;;;;;5785492;24;20248;-87
2023/09/12 08:53:42;;;;;;;;;;;;;;;;;;;;;
2023/09/12 08:56:36;;;;;;;7.95;6.35;;;20.10;97.90;;;;;;5770154;24;20269;-87
2023/09/12 08:59:39;;;;;;;7.40;6.60;;;20.10;97.80;;;;;;5839734;24;20297;-86
2023/09/12 09:02:58;;;;;;;7.53;6.35;;;20.20;97.80;;;;;;5880989;24;20184;-87
2023/09/12 09:06:20;;;;;;;7.40;6.55;;;20.20;97.80;;;;;;5869884;24;20164;-87
2023/09/12 09:16:00;;;;;;;;;;;;;;;;;;;;;
2023/09/12 09:18:24;;;;;;;7.57;6.70;;;20.30;97.70;;;;;;5830893;24;20278;-85
2023/09/12 09:21:25;;;;;;;7.45;6.75;;;20.30;97.70;;;;;;5793747;24;20496;-87
2023/09/12 09:24:29;;;;;;;7.43;6.63;;;20.30;97.70;;;;;;5779633;24;20174;-87
2023/09/12 09:31:31;;;;;;;7.68;6.88;;;20.30;97.70;;;;;;5716788;25;20174;-87
2023/09/12 10:17:36;;;;;;;7.10;6.40;;;20.40;97.40;;;;;;5218950;22;25239013;-87
2023/09/12 10:20:14;;;;;;;;;;;;;;;;;;;;;
2023/09/12 10:23:36;;;;;;;7.40;6.65;;;20.50;97.30;;;;;;6211747;23;20240;-87
2023/09/12 10:30:22;;;;;;;7.35;6.57;;;20.40;97.20;;;;;;5959766;24;20164;-87
2023/09/12 10:33:39;;;;;;;7.97;7.18;;;20.50;97.20;;;;;;5959864;24;20204;-87
2023/09/12 10:36:53;;;;;;;7.70;6.82;;;20.50;97.30;;;;;;5856684;24;20162;-87
2023/09/12 10:40:23;;;;;;;;;;;;;;;;;;;;;
2023/09/12 10:44:13;;;;;;;;;;;;;;;;;;;;;
2023/09/12 10:50:59;;;;;;;7.93;7.05;;;20.50;96.90;;;;;;5652856;25;20638;-87
2023/09/12 11:08:28;;;;;;;7.75;6.88;;;20.50;96.80;;;;;;5708228;22;15115467;-86
2023/09/12 11:11:02;;;;;;;7.60;6.80;;;20.60;96.40;;;;;;6269974;22;20159;-85
2023/09/12 11:13:48;;;;;;;7.78;6.97;;;20.60;96.30;;;;;;6161616;23;20151;-86
2023/09/12 11:16:51;;;;;;;7.25;6.55;;;20.60;96.20;;;;;;6123596;23;20204;-86
2023/09/12 11:23:34;;;;;;;7.22;6.53;;;20.70;96.10;;;;;;5996730;23;20155;-86
2023/09/12 11:26:34;;;;;;;7.70;6.93;;;20.70;96.00;;;;;;5911826;24;20160;-87
2023/09/12 11:29:24;;;;;;;7.53;6.72;;;20.80;95.80;;;;;;5858396;24;20161;-85
2023/09/12 11:32:32;;;;;;;7.90;7.10;;;20.80;95.60;;;;;;5823283;24;20174;-87
2023/09/12 11:35:15;;;;;;;8.07;6.82;;;20.90;95.90;;;;;;5802342;24;20183;-86
2023/09/12 11:37:56;;;;;;;7.93;7.13;;;20.80;95.50;;;;;;5827175;24;20234;-87
2023/09/12 11:40:47;;;;;;;7.68;6.88;;;20.90;95.40;;;;;;5831316;24;20204;-86
2023/09/12 11:43:28;;;;;;;8.85;7.15;;;20.80;95.50;;;;;;5836058;24;20161;-86
2023/09/12 11:46:10;;;;;;;7.72;6.93;;;20.90;95.50;;;;;;5844758;24;20166;-87
2023/09/12 11:48:55;;;;;;;8.57;7.32;;;20.90;95.40;;;;;;5797886;24;20171;-88
2023/09/12 11:51:29;;;;;;;7.45;6.70;;;20.80;95.40;;;;;;5758698;24;20649;-86
2023/09/12 11:54:11;;;;;;;8.00;7.18;;;20.90;95.50;;;;;;5839645;24;20223;-84
2023/09/12 11:57:16;;;;;;;7.80;6.95;;;20.90;95.40;;;;;;5875943;24;20162;-86
2023/09/12 11:59:45;;;;;;;8.70;7.78;;;20.90;95.40;;;;;;5956164;24;20223;-82
2023/09/12 12:02:50;;;;;;;8.80;7.88;;;20.80;95.50;;;;;;5982267;23;20158;-84
2023/09/12 12:05:44;;;;;;;8.63;7.72;;;20.80;95.60;;;;;;5913640;24;20212;-83
2023/09/12 12:08:18;;;;;;;8.95;7.72;;;20.80;95.60;;;;;;6052102;23;20204;-83
2023/09/12 12:10:54;;;;;;;9.63;7.53;;;20.90;95.60;;;;;;6050154;23;20240;-83
2023/09/12 12:55:04;;;;;;;9.13;8.18;;;20.90;96.00;;;;;;6309933;22;20179;-86
2023/09/12 13:27:34;;;;;;;9.73;8.65;;;21.00;96.00;;;;;;6128505;23;20171;-87
2023/09/12 13:31:06;;;;;;;12.13;8.68;;;21.00;96.10;;;;;;5983705;24;20496;-86
